sensor_id;sensor_type;location;lat;lon;timestamp;temperature;humidity
28767;DHT22;15921;52.034;20.650;2023-11-21T00:00:14;2.90;99.90
28767;DHT22;15921;52.034;20.650;2023-11-21T00:02:40;2.90;99.90
28767;DHT22;15921;52.034;20.650;2023-11-21T00:05:11;2.90;99.90
28767;DHT22;15921;52.034;20.650;2023-11-21T00:07:39;2.90;99.90
28767;DHT22;15921;52.034;20.650;2023-11-21T00:10:06;2.80;99.90
28767;DHT22;15921;52.034;20.650;2023-11-21T00:12:37;2.70;99.90
28767;DHT22;15921;52.034;20.650;2023-11-21T00:15:04;2.70;99.90
28767;DHT22;15921;52.034;20.650;2023-11-21T00:17:36;2.70;99.90
28767;DHT22;15921;52.034;20.650;2023-11-21T00:20:02;2.60;99.90
28767;DHT22;15921;52.034;20.650;2023-11-21T00:22:32;2.70;99.90
28767;DHT22;15921;52.034;20.650;2023-11-21T00:24:58;2.70;99.90
28767;DHT22;15921;52.034;20.650;2023-11-21T00:27:23;2.60;99.90
28767;DHT22;15921;52.034;20.650;2023-11-21T00:29:49;2.50;99.90
28767;DHT22;15921;52.034;20.650;2023-11-21T00:32:14;2.50;99.90
28767;DHT22;15921;52.034;20.650;2023-11-21T00:34:40;2.40;99.90
28767;DHT22;15921;52.034;20.650;2023-11-21T00:37:06;2.40;99.90
28767;DHT22;15921;52.034;20.650;2023-11-21T00:39:33;2.50;99.90
28767;DHT22;15921;52.034;20.650;2023-11-21T00:42:00;2.50;99.90
28767;DHT22;15921;52.034;20.650;2023-11-21T00:44:26;2.50;99.90
28767;DHT22;15921;52.034;20.650;2023-11-21T00:46:52;2.60;99.90
28767;DHT22;15921;52.034;20.650;2023-11-21T00:49:17;2.60;99.90
28767;DHT22;15921;52.034;20.650;2023-11-21T00:51:43;2.60;99.90
28767;DHT22;15921;52.034;20.650;2023-11-21T00:54:09;2.60;99.90
28767;DHT22;15921;52.034;20.650;2023-11-21T00:56:34;2.60;99.90
28767;DHT22;15921;52.034;20.650;2023-11-21T00:59:00;2.50;99.90
28767;DHT22;15921;52.034;20.650;2023-11-21T01:01:25;2.50;99.90
28767;DHT22;15921;52.034;20.650;2023-11-21T01:03:51;2.50;99.90
28767;DHT22;15921;52.034;20.650;2023-11-21T01:06:17;2.50;99.90
28767;DHT22;15921;52.034;20.650;2023-11-21T01:08:44;2.50;99.90
28767;DHT22;15921;52.034;20.650;2023-11-21T01:11:10;2.50;99.90
28767;DHT22;15921;52.034;20.650;2023-11-21T01:13:41;2.50;99.90
28767;DHT22;15921;52.034;20.650;2023-11-21T01:16:08;2.40;99.90
28767;DHT22;15921;52.034;20.650;2023-11-21T01:18:35;2.50;99.90
28767;DHT22;15921;52.034;20.650;2023-11-21T01:21:00;2.50;99.90
28767;DHT22;15921;52.034;20.650;2023-11-21T01:23:27;2.50;99.90
28767;DHT22;15921;52.034;20.650;2023-11-21T01:25:53;2.50;99.90
28767;DHT22;15921;52.034;20.650;2023-11-21T01:28:19;2.50;99.90
28767;DHT22;15921;52.034;20.650;2023-11-21T01:30:45;2.50;99.90
28767;DHT22;15921;52.034;20.650;2023-11-21T01:33:11;2.50;99.90
28767;DHT22;15921;52.034;20.650;2023-11-21T01:35:37;2.50;99.90
28767;DHT22;15921;52.034;20.650;2023-11-21T01:38:03;2.50;99.90
28767;DHT22;15921;52.034;20.650;2023-11-21T01:40:29;2.40;99.90
28767;DHT22;15921;52.034;20.650;2023-11-21T01:42:56;2.40;99.90
28767;DHT22;15921;52.034;20.650;2023-11-21T01:45:21;2.40;99.90
28767;DHT22;15921;52.034;20.650;2023-11-21T01:47:47;2.40;99.90
28767;DHT22;15921;52.034;20.650;2023-11-21T01:50:15;2.40;99.90
28767;DHT22;15921;52.034;20.650;2023-11-21T01:52:44;2.40;99.90
28767;DHT22;15921;52.034;20.650;2023-11-21T01:55:10;2.40;99.90
28767;DHT22;15921;52.034;20.650;2023-11-21T01:57:37;2.50;99.90
28767;DHT22;15921;52.034;20.650;2023-11-21T02:00:06;2.40;99.90
28767;DHT22;15921;52.034;20.650;2023-11-21T02:02:47;2.50;99.90
28767;DHT22;15921;52.034;20.650;2023-11-21T02:05:15;2.40;99.90
28767;DHT22;15921;52.034;20.650;2023-11-21T02:07:42;2.40;99.90
28767;DHT22;15921;52.034;20.650;2023-11-21T02:10:13;2.40;99.90
28767;DHT22;15921;52.034;20.650;2023-11-21T02:12:41;2.30;99.90
28767;DHT22;15921;52.034;20.650;2023-11-21T02:15:09;2.30;99.90
28767;DHT22;15921;52.034;20.650;2023-11-21T02:17:42;2.30;99.90
28767;DHT22;15921;52.034;20.650;2023-11-21T02:20:12;2.30;99.90
28767;DHT22;15921;52.034;20.650;2023-11-21T02:22:41;2.30;99.90
28767;DHT22;15921;52.034;20.650;2023-11-21T02:25:08;2.30;99.90
28767;DHT22;15921;52.034;20.650;2023-11-21T02:27:34;2.30;99.90
28767;DHT22;15921;52.034;20.650;2023-11-21T02:29:59;2.40;99.90
28767;DHT22;15921;52.034;20.650;2023-11-21T02:32:26;2.40;99.90
28767;DHT22;15921;52.034;20.650;2023-11-21T02:34:52;2.30;99.90
28767;DHT22;15921;52.034;20.650;2023-11-21T02:37:21;2.30;99.90
28767;DHT22;15921;52.034;20.650;2023-11-21T02:39:47;2.30;99.90
28767;DHT22;15921;52.034;20.650;2023-11-21T02:42:12;2.20;99.90
28767;DHT22;15921;52.034;20.650;2023-11-21T02:44:38;2.20;99.90
28767;DHT22;15921;52.034;20.650;2023-11-21T02:47:04;2.20;99.90
28767;DHT22;15921;52.034;20.650;2023-11-21T02:49:29;2.30;99.90
28767;DHT22;15921;52.034;20.650;2023-11-21T02:51:56;2.20;99.90
28767;DHT22;15921;52.034;20.650;2023-11-21T02:54:22;2.20;99.90
28767;DHT22;15921;52.034;20.650;2023-11-21T02:56:48;2.20;99.90
28767;DHT22;15921;52.034;20.650;2023-11-21T02:59:15;2.20;99.90
28767;DHT22;15921;52.034;20.650;2023-11-21T03:01:41;2.10;99.90
28767;DHT22;15921;52.034;20.650;2023-11-21T03:04:07;2.10;99.90
28767;DHT22;15921;52.034;20.650;2023-11-21T03:06:32;2.00;99.90
28767;DHT22;15921;52.034;20.650;2023-11-21T03:08:59;2.00;99.90
28767;DHT22;15921;52.034;20.650;2023-11-21T03:11:24;1.90;99.90
28767;DHT22;15921;52.034;20.650;2023-11-21T03:13:50;1.90;99.90
28767;DHT22;15921;52.034;20.650;2023-11-21T03:16:16;1.90;99.90
28767;DHT22;15921;52.034;20.650;2023-11-21T03:18:42;1.90;99.90
28767;DHT22;15921;52.034;20.650;2023-11-21T03:21:08;1.80;99.90
28767;DHT22;15921;52.034;20.650;2023-11-21T03:23:35;1.80;99.90
28767;DHT22;15921;52.034;20.650;2023-11-21T03:26:01;1.80;99.90
28767;DHT22;15921;52.034;20.650;2023-11-21T03:28:27;1.70;99.90
28767;DHT22;15921;52.034;20.650;2023-11-21T03:30:53;1.70;99.90
28767;DHT22;15921;52.034;20.650;2023-11-21T03:33:19;1.70;99.90
28767;DHT22;15921;52.034;20.650;2023-11-21T03:35:45;1.80;99.90
28767;DHT22;15921;52.034;20.650;2023-11-21T03:38:11;1.80;99.90
28767;DHT22;15921;52.034;20.650;2023-11-21T03:40:38;1.80;99.90
28767;DHT22;15921;52.034;20.650;2023-11-21T03:43:05;1.80;99.90
28767;DHT22;15921;52.034;20.650;2023-11-21T03:45:31;1.80;99.90
28767;DHT22;15921;52.034;20.650;2023-11-21T03:47:57;1.80;99.90
28767;DHT22;15921;52.034;20.650;2023-11-21T03:50:23;1.80;99.90
28767;DHT22;15921;52.034;20.650;2023-11-21T03:52:48;1.90;99.90
28767;DHT22;15921;52.034;20.650;2023-11-21T03:55:14;1.90;99.90
28767;DHT22;15921;52.034;20.650;2023-11-21T03:57:40;1.80;99.90
28767;DHT22;15921;52.034;20.650;2023-11-21T04:00:06;1.80;99.90
28767;DHT22;15921;52.034;20.650;2023-11-21T04:02:34;1.80;99.90
28767;DHT22;15921;52.034;20.650;2023-11-21T04:05:00;1.70;99.90
28767;DHT22;15921;52.034;20.650;2023-11-21T04:07:26;1.60;99.90
28767;DHT22;15921;52.034;20.650;2023-11-21T04:09:52;1.60;99.90
28767;DHT22;15921;52.034;20.650;2023-11-21T04:12:19;1.60;99.90
28767;DHT22;15921;52.034;20.650;2023-11-21T04:14:45;1.50;99.90
28767;DHT22;15921;52.034;20.650;2023-11-21T04:17:10;1.40;99.90
28767;DHT22;15921;52.034;20.650;2023-11-21T04:19:36;1.40;99.90
28767;DHT22;15921;52.034;20.650;2023-11-21T04:22:02;1.30;99.90
28767;DHT22;15921;52.034;20.650;2023-11-21T04:24:27;1.30;99.90
28767;DHT22;15921;52.034;20.650;2023-11-21T04:26:53;1.30;99.90
28767;DHT22;15921;52.034;20.650;2023-11-21T04:29:19;1.30;99.90
28767;DHT22;15921;52.034;20.650;2023-11-21T04:31:44;1.30;99.90
28767;DHT22;15921;52.034;20.650;2023-11-21T04:34:10;1.30;99.90
28767;DHT22;15921;52.034;20.650;2023-11-21T04:36:35;1.30;99.90
28767;DHT22;15921;52.034;20.650;2023-11-21T04:39:01;1.30;99.90
28767;DHT22;15921;52.034;20.650;2023-11-21T04:41:27;1.30;99.90
28767;DHT22;15921;52.034;20.650;2023-11-21T04:43:53;1.20;99.90
28767;DHT22;15921;52.034;20.650;2023-11-21T04:46:18;1.30;99.90
28767;DHT22;15921;52.034;20.650;2023-11-21T04:48:44;1.30;99.90
28767;DHT22;15921;52.034;20.650;2023-11-21T04:51:10;1.40;99.90
28767;DHT22;15921;52.034;20.650;2023-11-21T04:53:38;1.40;99.90
28767;DHT22;15921;52.034;20.650;2023-11-21T04:56:05;1.50;99.90
28767;DHT22;15921;52.034;20.650;2023-11-21T04:58:31;1.50;99.90
28767;DHT22;15921;52.034;20.650;2023-11-21T05:00:57;1.40;99.90
28767;DHT22;15921;52.034;20.650;2023-11-21T05:03:23;1.50;99.90
28767;DHT22;15921;52.034;20.650;2023-11-21T05:05:49;1.50;99.90
28767;DHT22;15921;52.034;20.650;2023-11-21T05:08:14;1.50;99.90
28767;DHT22;15921;52.034;20.650;2023-11-21T05:10:40;1.40;99.90
28767;DHT22;15921;52.034;20.650;2023-11-21T05:13:06;1.40;99.90
28767;DHT22;15921;52.034;20.650;2023-11-21T05:15:36;1.40;99.90
28767;DHT22;15921;52.034;20.650;2023-11-21T05:18:03;1.40;99.90
28767;DHT22;15921;52.034;20.650;2023-11-21T05:20:28;1.30;99.90
28767;DHT22;15921;52.034;20.650;2023-11-21T05:22:54;1.30;99.90
28767;DHT22;15921;52.034;20.650;2023-11-21T05:25:20;1.20;99.90
28767;DHT22;15921;52.034;20.650;2023-11-21T05:27:46;1.20;99.90
28767;DHT22;15921;52.034;20.650;2023-11-21T05:30:13;1.20;99.90
28767;DHT22;15921;52.034;20.650;2023-11-21T05:32:40;1.20;99.90
28767;DHT22;15921;52.034;20.650;2023-11-21T05:35:10;1.20;99.90
28767;DHT22;15921;52.034;20.650;2023-11-21T05:37:41;1.20;99.90
28767;DHT22;15921;52.034;20.650;2023-11-21T05:40:07;1.10;99.90
28767;DHT22;15921;52.034;20.650;2023-11-21T05:42:34;1.00;99.90
28767;DHT22;15921;52.034;20.650;2023-11-21T05:45:00;1.00;99.90
28767;DHT22;15921;52.034;20.650;2023-11-21T05:47:41;1.00;99.90
28767;DHT22;15921;52.034;20.650;2023-11-21T05:50:12;1.00;99.90
28767;DHT22;15921;52.034;20.650;2023-11-21T05:52:41;1.00;99.90
28767;DHT22;15921;52.034;20.650;2023-11-21T05:55:08;1.00;99.90
28767;DHT22;15921;52.034;20.650;2023-11-21T05:57:34;1.00;99.90
28767;DHT22;15921;52.034;20.650;2023-11-21T06:00:08;1.00;99.90
28767;DHT22;15921;52.034;20.650;2023-11-21T06:02:41;0.90;99.90
28767;DHT22;15921;52.034;20.650;2023-11-21T06:05:07;0.90;99.90
28767;DHT22;15921;52.034;20.650;2023-11-21T06:07:33;0.90;99.90
28767;DHT22;15921;52.034;20.650;2023-11-21T06:09:59;1.00;99.90
28767;DHT22;15921;52.034;20.650;2023-11-21T06:12:25;1.00;99.90
28767;DHT22;15921;52.034;20.650;2023-11-21T06:14:50;1.00;99.90
28767;DHT22;15921;52.034;20.650;2023-11-21T06:17:16;0.90;99.90
28767;DHT22;15921;52.034;20.650;2023-11-21T06:19:44;0.90;99.90
28767;DHT22;15921;52.034;20.650;2023-11-21T06:22:11;0.90;99.90
28767;DHT22;15921;52.034;20.650;2023-11-21T06:24:37;0.80;99.90
28767;DHT22;15921;52.034;20.650;2023-11-21T06:27:04;0.80;99.90
28767;DHT22;15921;52.034;20.650;2023-11-21T06:29:30;0.80;99.90
28767;DHT22;15921;52.034;20.650;2023-11-21T06:31:57;0.80;99.90
28767;DHT22;15921;52.034;20.650;2023-11-21T06:34:24;0.90;99.90
28767;DHT22;15921;52.034;20.650;2023-11-21T06:36:49;0.90;99.90
28767;DHT22;15921;52.034;20.650;2023-11-21T06:39:15;0.90;99.90
28767;DHT22;15921;52.034;20.650;2023-11-21T06:41:42;0.90;99.90
28767;DHT22;15921;52.034;20.650;2023-11-21T06:44:08;1.00;99.90
28767;DHT22;15921;52.034;20.650;2023-11-21T06:46:34;1.00;99.90
28767;DHT22;15921;52.034;20.650;2023-11-21T06:49:00;1.10;99.90
28767;DHT22;15921;52.034;20.650;2023-11-21T06:51:25;1.10;99.90
28767;DHT22;15921;52.034;20.650;2023-11-21T06:53:51;1.20;99.90
28767;DHT22;15921;52.034;20.650;2023-11-21T06:56:18;1.20;99.90
28767;DHT22;15921;52.034;20.650;2023-11-21T06:58:45;1.30;99.90
28767;DHT22;15921;52.034;20.650;2023-11-21T07:01:12;1.30;99.90
28767;DHT22;15921;52.034;20.650;2023-11-21T07:03:37;1.40;99.90
28767;DHT22;15921;52.034;20.650;2023-11-21T07:06:04;1.40;99.90
28767;DHT22;15921;52.034;20.650;2023-11-21T07:08:30;1.30;99.90
28767;DHT22;15921;52.034;20.650;2023-11-21T07:10:55;1.30;99.90
28767;DHT22;15921;52.034;20.650;2023-11-21T07:13:21;1.30;99.90
28767;DHT22;15921;52.034;20.650;2023-11-21T07:15:47;1.20;99.90
28767;DHT22;15921;52.034;20.650;2023-11-21T07:18:13;1.10;99.90
28767;DHT22;15921;52.034;20.650;2023-11-21T07:20:39;1.00;99.90
28767;DHT22;15921;52.034;20.650;2023-11-21T07:23:05;1.00;99.90
28767;DHT22;15921;52.034;20.650;2023-11-21T07:25:31;1.00;99.90
28767;DHT22;15921;52.034;20.650;2023-11-21T07:27:59;1.00;99.90
28767;DHT22;15921;52.034;20.650;2023-11-21T07:30:26;1.00;99.90
28767;DHT22;15921;52.034;20.650;2023-11-21T07:32:52;1.00;99.90
28767;DHT22;15921;52.034;20.650;2023-11-21T07:35:18;1.00;99.90
28767;DHT22;15921;52.034;20.650;2023-11-21T07:37:44;1.00;99.90
28767;DHT22;15921;52.034;20.650;2023-11-21T07:40:10;1.10;99.90
28767;DHT22;15921;52.034;20.650;2023-11-21T07:42:37;1.10;99.90
28767;DHT22;15921;52.034;20.650;2023-11-21T07:45:05;1.20;99.90
28767;DHT22;15921;52.034;20.650;2023-11-21T07:47:32;1.20;99.90
28767;DHT22;15921;52.034;20.650;2023-11-21T07:50:00;1.30;99.90
28767;DHT22;15921;52.034;20.650;2023-11-21T07:52:26;1.30;99.90
28767;DHT22;15921;52.034;20.650;2023-11-21T07:54:51;1.30;99.90
28767;DHT22;15921;52.034;20.650;2023-11-21T07:57:17;1.30;99.90
28767;DHT22;15921;52.034;20.650;2023-11-21T07:59:43;1.30;99.90
28767;DHT22;15921;52.034;20.650;2023-11-21T08:02:09;1.30;99.90
28767;DHT22;15921;52.034;20.650;2023-11-21T08:04:34;1.40;99.90
28767;DHT22;15921;52.034;20.650;2023-11-21T08:07:01;1.40;99.90
28767;DHT22;15921;52.034;20.650;2023-11-21T08:09:27;1.40;99.90
28767;DHT22;15921;52.034;20.650;2023-11-21T08:11:53;1.40;99.90
28767;DHT22;15921;52.034;20.650;2023-11-21T08:14:19;1.40;99.90
28767;DHT22;15921;52.034;20.650;2023-11-21T08:16:45;1.40;99.90
28767;DHT22;15921;52.034;20.650;2023-11-21T08:19:11;1.40;99.90
28767;DHT22;15921;52.034;20.650;2023-11-21T08:21:37;1.40;99.90
28767;DHT22;15921;52.034;20.650;2023-11-21T08:24:05;1.40;99.90
28767;DHT22;15921;52.034;20.650;2023-11-21T08:26:31;1.40;99.90
28767;DHT22;15921;52.034;20.650;2023-11-21T08:28:57;1.30;99.90
28767;DHT22;15921;52.034;20.650;2023-11-21T08:31:26;1.30;99.90
28767;DHT22;15921;52.034;20.650;2023-11-21T08:33:52;1.30;99.90
28767;DHT22;15921;52.034;20.650;2023-11-21T08:36:21;1.40;99.90
28767;DHT22;15921;52.034;20.650;2023-11-21T08:38:50;1.30;99.90
28767;DHT22;15921;52.034;20.650;2023-11-21T08:41:17;1.30;99.90
28767;DHT22;15921;52.034;20.650;2023-11-21T08:43:52;1.20;99.90
28767;DHT22;15921;52.034;20.650;2023-11-21T08:46:20;1.20;99.90
28767;DHT22;15921;52.034;20.650;2023-11-21T08:48:46;1.10;99.90
28767;DHT22;15921;52.034;20.650;2023-11-21T08:51:11;1.10;99.90
28767;DHT22;15921;52.034;20.650;2023-11-21T08:53:38;1.10;99.90
28767;DHT22;15921;52.034;20.650;2023-11-21T08:56:04;1.10;99.90
28767;DHT22;15921;52.034;20.650;2023-11-21T08:58:31;1.10;99.90
28767;DHT22;15921;52.034;20.650;2023-11-21T09:00:57;1.10;99.90
28767;DHT22;15921;52.034;20.650;2023-11-21T09:03:24;1.10;99.90
28767;DHT22;15921;52.034;20.650;2023-11-21T09:05:51;1.00;99.90
28767;DHT22;15921;52.034;20.650;2023-11-21T09:08:16;1.10;99.90
28767;DHT22;15921;52.034;20.650;2023-11-21T09:10:42;1.10;99.90
28767;DHT22;15921;52.034;20.650;2023-11-21T09:13:10;1.10;99.90
28767;DHT22;15921;52.034;20.650;2023-11-21T09:15:36;1.10;99.90
28767;DHT22;15921;52.034;20.650;2023-11-21T09:18:01;1.10;99.90
28767;DHT22;15921;52.034;20.650;2023-11-21T09:20:27;1.00;99.90
28767;DHT22;15921;52.034;20.650;2023-11-21T09:22:53;1.10;99.90
28767;DHT22;15921;52.034;20.650;2023-11-21T09:25:21;1.10;99.90
28767;DHT22;15921;52.034;20.650;2023-11-21T09:27:46;1.10;99.90
28767;DHT22;15921;52.034;20.650;2023-11-21T09:30:12;1.10;99.90
28767;DHT22;15921;52.034;20.650;2023-11-21T09:32:39;1.10;99.90
28767;DHT22;15921;52.034;20.650;2023-11-21T09:35:06;1.20;99.90
28767;DHT22;15921;52.034;20.650;2023-11-21T09:37:33;1.40;99.90
28767;DHT22;15921;52.034;20.650;2023-11-21T09:39:59;1.40;99.90
28767;DHT22;15921;52.034;20.650;2023-11-21T09:42:40;1.40;99.90
28767;DHT22;15921;52.034;20.650;2023-11-21T09:45:26;1.50;99.90
28767;DHT22;15921;52.034;20.650;2023-11-21T09:47:54;1.60;99.90
28767;DHT22;15921;52.034;20.650;2023-11-21T09:50:21;1.60;99.90
28767;DHT22;15921;52.034;20.650;2023-11-21T09:52:54;1.70;99.90
28767;DHT22;15921;52.034;20.650;2023-11-21T09:55:21;1.80;99.90
28767;DHT22;15921;52.034;20.650;2023-11-21T09:57:50;1.70;99.90
28767;DHT22;15921;52.034;20.650;2023-11-21T10:00:16;1.80;99.90
28767;DHT22;15921;52.034;20.650;2023-11-21T10:02:43;1.80;99.90
28767;DHT22;15921;52.034;20.650;2023-11-21T10:05:09;1.60;99.90
28767;DHT22;15921;52.034;20.650;2023-11-21T10:07:37;1.70;99.90
28767;DHT22;15921;52.034;20.650;2023-11-21T10:10:05;1.70;99.90
28767;DHT22;15921;52.034;20.650;2023-11-21T10:12:32;1.60;99.90
28767;DHT22;15921;52.034;20.650;2023-11-21T10:14:59;1.60;99.90
28767;DHT22;15921;52.034;20.650;2023-11-21T10:17:28;1.70;99.90
28767;DHT22;15921;52.034;20.650;2023-11-21T10:19:57;1.70;99.90
28767;DHT22;15921;52.034;20.650;2023-11-21T10:22:23;1.80;99.90
28767;DHT22;15921;52.034;20.650;2023-11-21T10:24:49;1.90;99.90
28767;DHT22;15921;52.034;20.650;2023-11-21T10:27:15;1.90;99.90
28767;DHT22;15921;52.034;20.650;2023-11-21T10:29:41;2.00;99.90
28767;DHT22;15921;52.034;20.650;2023-11-21T10:32:07;2.00;99.90
28767;DHT22;15921;52.034;20.650;2023-11-21T10:34:34;2.00;99.90
28767;DHT22;15921;52.034;20.650;2023-11-21T10:37:11;2.00;99.90
28767;DHT22;15921;52.034;20.650;2023-11-21T10:39:37;1.90;99.90
28767;DHT22;15921;52.034;20.650;2023-11-21T10:42:04;1.90;99.90
28767;DHT22;15921;52.034;20.650;2023-11-21T10:44:30;1.80;99.90
28767;DHT22;15921;52.034;20.650;2023-11-21T10:46:56;1.80;99.90
28767;DHT22;15921;52.034;20.650;2023-11-21T10:49:26;1.70;99.90
28767;DHT22;15921;52.034;20.650;2023-11-21T10:51:53;1.70;99.90
28767;DHT22;15921;52.034;20.650;2023-11-21T10:54:20;1.60;99.90
28767;DHT22;15921;52.034;20.650;2023-11-21T10:56:49;1.50;99.90
28767;DHT22;15921;52.034;20.650;2023-11-21T10:59:17;1.40;99.90
28767;DHT22;15921;52.034;20.650;2023-11-21T11:01:45;1.30;99.90
28767;DHT22;15921;52.034;20.650;2023-11-21T11:04:12;1.40;99.90
28767;DHT22;15921;52.034;20.650;2023-11-21T11:06:48;1.40;99.90
28767;DHT22;15921;52.034;20.650;2023-11-21T11:09:17;1.40;99.90
28767;DHT22;15921;52.034;20.650;2023-11-21T11:11:43;1.40;99.90
28767;DHT22;15921;52.034;20.650;2023-11-21T11:14:12;1.40;99.90
28767;DHT22;15921;52.034;20.650;2023-11-21T11:16:41;1.60;99.90
28767;DHT22;15921;52.034;20.650;2023-11-21T11:19:08;1.60;99.90
28767;DHT22;15921;52.034;20.650;2023-11-21T11:24:57;1.70;99.90
28767;DHT22;15921;52.034;20.650;2023-11-21T11:37:43;2.00;99.90
28767;DHT22;15921;52.034;20.650;2023-11-21T11:40:11;1.90;99.90
28767;DHT22;15921;52.034;20.650;2023-11-21T11:42:37;1.80;99.90
28767;DHT22;15921;52.034;20.650;2023-11-21T11:45:17;1.80;99.90
28767;DHT22;15921;52.034;20.650;2023-11-21T11:47:43;1.70;99.90
28767;DHT22;15921;52.034;20.650;2023-11-21T11:50:13;1.70;99.90
28767;DHT22;15921;52.034;20.650;2023-11-21T11:55:13;1.80;99.90
28767;DHT22;15921;52.034;20.650;2023-11-21T11:57:40;1.80;99.90
28767;DHT22;15921;52.034;20.650;2023-11-21T12:02:59;1.90;99.90
28767;DHT22;15921;52.034;20.650;2023-11-21T12:05:28;1.90;99.90
28767;DHT22;15921;52.034;20.650;2023-11-21T12:07:56;1.90;99.90
28767;DHT22;15921;52.034;20.650;2023-11-21T12:10:27;1.90;99.90
28767;DHT22;15921;52.034;20.650;2023-11-21T12:13:02;1.80;99.90
28767;DHT22;15921;52.034;20.650;2023-11-21T12:15:28;1.80;99.90
28767;DHT22;15921;52.034;20.650;2023-11-21T12:17:56;1.70;99.90
28767;DHT22;15921;52.034;20.650;2023-11-21T12:20:24;1.60;99.90
28767;DHT22;15921;52.034;20.650;2023-11-21T12:22:51;1.60;99.90
28767;DHT22;15921;52.034;20.650;2023-11-21T12:25:20;1.50;99.90
28767;DHT22;15921;52.034;20.650;2023-11-21T12:27:49;1.40;99.90
28767;DHT22;15921;52.034;20.650;2023-11-21T12:30:16;1.40;99.90
28767;DHT22;15921;52.034;20.650;2023-11-21T12:32:44;1.50;99.90
28767;DHT22;15921;52.034;20.650;2023-11-21T12:35:11;1.40;99.90
28767;DHT22;15921;52.034;20.650;2023-11-21T12:37:41;1.40;99.90
28767;DHT22;15921;52.034;20.650;2023-11-21T12:40:10;1.40;99.90
28767;DHT22;15921;52.034;20.650;2023-11-21T12:42:47;1.40;99.90
28767;DHT22;15921;52.034;20.650;2023-11-21T12:48:09;1.20;99.90
28767;DHT22;15921;52.034;20.650;2023-11-21T12:50:37;1.10;99.90
28767;DHT22;15921;52.034;20.650;2023-11-21T12:53:04;1.20;99.90
28767;DHT22;15921;52.034;20.650;2023-11-21T12:55:32;1.20;99.90
28767;DHT22;15921;52.034;20.650;2023-11-21T12:57:59;1.20;99.90
28767;DHT22;15921;52.034;20.650;2023-11-21T13:03:04;1.20;99.90
28767;DHT22;15921;52.034;20.650;2023-11-21T13:05:34;1.10;99.90
28767;DHT22;15921;52.034;20.650;2023-11-21T13:08:04;1.20;99.90
28767;DHT22;15921;52.034;20.650;2023-11-21T13:10:34;1.10;99.90
28767;DHT22;15921;52.034;20.650;2023-11-21T13:13:06;1.10;99.90
28767;DHT22;15921;52.034;20.650;2023-11-21T13:15:34;1.00;99.90
28767;DHT22;15921;52.034;20.650;2023-11-21T13:18:02;1.00;99.90
28767;DHT22;15921;52.034;20.650;2023-11-21T13:20:27;0.90;99.90
28767;DHT22;15921;52.034;20.650;2023-11-21T13:22:57;0.90;99.90
28767;DHT22;15921;52.034;20.650;2023-11-21T13:25:25;0.80;99.90
28767;DHT22;15921;52.034;20.650;2023-11-21T13:27:55;0.90;99.90
28767;DHT22;15921;52.034;20.650;2023-11-21T13:30:21;0.90;99.90
28767;DHT22;15921;52.034;20.650;2023-11-21T13:32:52;0.90;99.90
28767;DHT22;15921;52.034;20.650;2023-11-21T13:35:18;1.00;99.90
28767;DHT22;15921;52.034;20.650;2023-11-21T13:37:57;1.00;99.90
28767;DHT22;15921;52.034;20.650;2023-11-21T13:40:26;1.00;99.90
28767;DHT22;15921;52.034;20.650;2023-11-21T13:42:55;0.90;99.90
28767;DHT22;15921;52.034;20.650;2023-11-21T13:45:25;0.90;99.90
28767;DHT22;15921;52.034;20.650;2023-11-21T13:47:53;0.80;99.90
28767;DHT22;15921;52.034;20.650;2023-11-21T13:50:30;0.80;99.90
28767;DHT22;15921;52.034;20.650;2023-11-21T13:53:03;0.80;99.90
28767;DHT22;15921;52.034;20.650;2023-11-21T13:55:36;0.80;99.90
28767;DHT22;15921;52.034;20.650;2023-11-21T13:58:03;0.80;99.90
28767;DHT22;15921;52.034;20.650;2023-11-21T14:00:30;0.70;99.90
28767;DHT22;15921;52.034;20.650;2023-11-21T14:03:22;0.70;99.90
28767;DHT22;15921;52.034;20.650;2023-11-21T14:05:48;0.70;99.90
28767;DHT22;15921;52.034;20.650;2023-11-21T14:08:22;0.60;99.90
28767;DHT22;15921;52.034;20.650;2023-11-21T14:10:57;0.60;99.90
28767;DHT22;15921;52.034;20.650;2023-11-21T14:13:27;0.60;99.90
28767;DHT22;15921;52.034;20.650;2023-11-21T14:15:53;0.60;99.90
28767;DHT22;15921;52.034;20.650;2023-11-21T14:18:26;0.60;99.90
28767;DHT22;15921;52.034;20.650;2023-11-21T14:21:16;0.60;99.90
28767;DHT22;15921;52.034;20.650;2023-11-21T14:23:42;0.60;99.90
28767;DHT22;15921;52.034;20.650;2023-11-21T14:26:08;0.60;99.90
28767;DHT22;15921;52.034;20.650;2023-11-21T14:28:34;0.60;99.90
28767;DHT22;15921;52.034;20.650;2023-11-21T14:31:01;0.60;99.90
28767;DHT22;15921;52.034;20.650;2023-11-21T14:33:28;0.50;99.90
28767;DHT22;15921;52.034;20.650;2023-11-21T14:35:54;0.60;99.90
28767;DHT22;15921;52.034;20.650;2023-11-21T14:38:20;0.50;99.90
28767;DHT22;15921;52.034;20.650;2023-11-21T14:40:46;0.40;99.90
28767;DHT22;15921;52.034;20.650;2023-11-21T14:43:12;0.50;99.90
28767;DHT22;15921;52.034;20.650;2023-11-21T14:45:38;0.50;99.90
28767;DHT22;15921;52.034;20.650;2023-11-21T14:48:04;0.40;99.90
28767;DHT22;15921;52.034;20.650;2023-11-21T14:50:30;0.40;99.90
28767;DHT22;15921;52.034;20.650;2023-11-21T14:53:09;0.40;99.90
28767;DHT22;15921;52.034;20.650;2023-11-21T14:55:36;0.40;99.90
28767;DHT22;15921;52.034;20.650;2023-11-21T14:58:18;0.40;99.90
28767;DHT22;15921;52.034;20.650;2023-11-21T15:00:57;0.50;99.90
28767;DHT22;15921;52.034;20.650;2023-11-21T15:03:27;0.40;99.90
28767;DHT22;15921;52.034;20.650;2023-11-21T15:06:05;0.50;99.90
28767;DHT22;15921;52.034;20.650;2023-11-21T15:08:56;0.50;99.90
28767;DHT22;15921;52.034;20.650;2023-11-21T15:11:43;0.50;99.90
28767;DHT22;15921;52.034;20.650;2023-11-21T15:14:09;0.50;99.90
28767;DHT22;15921;52.034;20.650;2023-11-21T15:16:37;0.50;99.90
28767;DHT22;15921;52.034;20.650;2023-11-21T15:19:07;0.50;99.90
28767;DHT22;15921;52.034;20.650;2023-11-21T15:21:36;0.50;99.90
28767;DHT22;15921;52.034;20.650;2023-11-21T15:24:02;0.40;99.90
28767;DHT22;15921;52.034;20.650;2023-11-21T15:26:28;0.40;99.90
28767;DHT22;15921;52.034;20.650;2023-11-21T15:28:54;0.30;99.90
28767;DHT22;15921;52.034;20.650;2023-11-21T15:31:21;0.30;99.90
28767;DHT22;15921;52.034;20.650;2023-11-21T15:33:51;0.20;99.90
28767;DHT22;15921;52.034;20.650;2023-11-21T15:36:18;0.20;99.90
28767;DHT22;15921;52.034;20.650;2023-11-21T15:38:45;0.20;99.90
28767;DHT22;15921;52.034;20.650;2023-11-21T15:41:10;0.30;99.90
28767;DHT22;15921;52.034;20.650;2023-11-21T15:43:37;0.30;99.90
28767;DHT22;15921;52.034;20.650;2023-11-21T15:46:03;0.20;99.90
28767;DHT22;15921;52.034;20.650;2023-11-21T15:48:36;0.30;99.90
28767;DHT22;15921;52.034;20.650;2023-11-21T15:51:06;0.30;99.90
28767;DHT22;15921;52.034;20.650;2023-11-21T15:53:33;0.20;99.90
28767;DHT22;15921;52.034;20.650;2023-11-21T15:55:59;0.20;99.90